Time;durP1;ratioP1;P1;durP2;ratioP2;P2;SDS_P1;SDS_P2;PMS_P1;PMS_P2;Temp;Humidity;BMP_temperature;BMP_pressure;BME280_temperature;BME280_humidity;BME280_pressure;Samples;Min_cycle;Max_cycle;Signal;HPM_P1;HPM_P2
2021/09/07 00:02:19;;;;;;;6.53;4.75;;;23.50;54.30;;;;;;5053220;28;20386;-56
2021/09/07 00:04:44;;;;;;;6.20;5.03;;;23.50;54.40;;;;;;5051684;28;20040;-55
2021/09/07 00:07:10;;;;;;;9.27;5.20;;;23.50;54.30;;;;;;5052605;28;20060;-56
2021/09/07 00:09:36;;;;;;;8.95;5.65;;;23.50;54.30;;;;;;5051749;28;20036;-56
2021/09/07 00:12:01;;;;;;;6.88;5.38;;;23.50;54.20;;;;;;5052554;28;20370;-54
2021/09/07 00:14:27;;;;;;;6.95;5.25;;;23.50;54.20;;;;;;5057781;28;20474;-55
2021/09/07 00:16:53;;;;;;;6.70;4.85;;;23.50;54.20;;;;;;5051697;28;20033;-54
2021/09/07 00:19:18;;;;;;;5.97;4.97;;;23.50;54.20;;;;;;5052156;28;20033;-55
2021/09/07 00:21:44;;;;;;;6.47;5.10;;;23.50;54.20;;;;;;5050229;28;20032;-55
2021/09/07 00:24:10;;;;;;;5.65;4.95;;;23.50;54.20;;;;;;5052186;28;20028;-54
2021/09/07 00:26:35;;;;;;;6.93;5.60;;;23.50;54.20;;;;;;5051317;28;20466;-56
2021/09/07 00:29:01;;;;;;;8.30;5.72;;;23.50;54.20;;;;;;5052185;28;20370;-56
2021/09/07 00:31:27;;;;;;;6.05;4.93;;;23.50;54.30;;;;;;5051970;28;20037;-55
2021/09/07 00:33:52;;;;;;;6.63;4.72;;;23.50;54.20;;;;;;5051616;28;20044;-56
2021/09/07 00:36:18;;;;;;;5.82;4.72;;;23.50;54.20;;;;;;5055219;28;20029;-56
2021/09/07 00:38:43;;;;;;;5.82;5.03;;;23.50;54.20;;;;;;5050741;28;20079;-55
2021/09/07 00:41:09;;;;;;;7.78;5.50;;;23.50;54.30;;;;;;5050669;28;20075;-55
2021/09/07 00:43:35;;;;;;;7.10;5.55;;;23.50;54.30;;;;;;5058688;28;20032;-56
2021/09/07 00:46:00;;;;;;;7.32;5.38;;;23.50;54.30;;;;;;5052059;28;20105;-56
2021/09/07 00:48:26;;;;;;;6.85;5.20;;;23.50;54.30;;;;;;5051654;28;20091;-55
2021/09/07 00:50:52;;;;;;;5.65;4.40;;;23.50;54.30;;;;;;5050528;28;20082;-55
2021/09/07 00:53:18;;;;;;;6.57;5.10;;;23.50;54.30;;;;;;5051307;28;20036;-57
2021/09/07 00:55:48;;;;;;;5.85;4.80;;;23.40;54.30;;;;;;5050500;28;20449;-55
2021/09/07 00:58:15;;;;;;;5.90;4.70;;;23.50;54.30;;;;;;5050664;28;20196;-56
2021/09/07 01:00:43;;;;;;;6.07;4.97;;;23.50;54.30;;;;;;5050992;28;20447;-56
2021/09/07 01:03:08;;;;;;;6.40;5.13;;;23.40;54.30;;;;;;5052396;28;20024;-55
2021/09/07 01:05:35;;;;;;;5.93;4.82;;;23.40;54.30;;;;;;5050774;28;20044;-55
2021/09/07 01:08:01;;;;;;;5.88;4.60;;;23.40;54.30;;;;;;5051597;28;20105;-56
2021/09/07 01:10:27;;;;;;;5.78;4.80;;;23.50;54.50;;;;;;5051252;28;20025;-55
2021/09/07 01:12:55;;;;;;;6.63;5.32;;;23.40;54.50;;;;;;5054318;28;20808;-56
2021/09/07 01:15:21;;;;;;;6.45;5.10;;;23.40;54.50;;;;;;5054394;28;20474;-56
2021/09/07 01:17:46;;;;;;;6.47;5.13;;;23.40;54.40;;;;;;5050653;28;20025;-55
2021/09/07 01:20:13;;;;;;;7.30;5.43;;;23.40;54.40;;;;;;5050199;28;20032;-56
2021/09/07 01:22:39;;;;;;;5.53;4.90;;;23.40;54.50;;;;;;5049928;28;20167;-55
2021/09/07 01:25:05;;;;;;;6.78;5.20;;;23.40;54.40;;;;;;5050805;28;20483;-55
2021/09/07 01:27:32;;;;;;;7.30;5.45;;;23.40;54.40;;;;;;5050887;28;20112;-55
2021/09/07 01:29:57;;;;;;;6.50;5.13;;;23.50;54.50;;;;;;5050480;28;20065;-55
2021/09/07 01:32:23;;;;;;;6.20;4.90;;;23.40;54.40;;;;;;5053824;28;20056;-55
2021/09/07 01:34:49;;;;;;;6.18;5.15;;;23.40;54.40;;;;;;5050031;28;20037;-55
2021/09/07 01:37:15;;;;;;;6.63;5.05;;;23.40;54.40;;;;;;5051238;28;20045;-55
2021/09/07 01:39:40;;;;;;;7.07;5.28;;;23.40;54.50;;;;;;5050100;28;20025;-56
2021/09/07 01:42:07;;;;;;;7.53;5.30;;;23.40;54.40;;;;;;5042786;28;20025;-56
2021/09/07 01:44:33;;;;;;;6.43;4.95;;;23.40;54.30;;;;;;5053937;28;20025;-55
2021/09/07 01:46:59;;;;;;;7.03;5.70;;;23.40;54.50;;;;;;5051058;28;20040;-55
2021/09/07 01:49:25;;;;;;;6.63;5.28;;;23.40;54.50;;;;;;5051140;28;20029;-56
2021/09/07 01:51:51;;;;;;;7.57;5.32;;;23.40;54.50;;;;;;5054219;28;20048;-53
2021/09/07 01:54:19;;;;;;;6.80;5.60;;;23.40;54.40;;;;;;5050872;28;20039;-56
2021/09/07 01:56:44;;;;;;;7.07;5.63;;;23.40;54.40;;;;;;5050379;28;20029;-56
2021/09/07 01:59:10;;;;;;;6.57;5.30;;;23.40;54.30;;;;;;5050417;28;20028;-57
2021/09/07 02:01:37;;;;;;;6.55;5.50;;;23.40;54.40;;;;;;5049347;28;20427;-55
2021/09/07 02:04:02;;;;;;;6.43;4.90;;;23.40;54.50;;;;;;5051148;28;20036;-56
2021/09/07 02:06:28;;;;;;;7.53;5.53;;;23.40;54.30;;;;;;5051049;28;20378;-56
2021/09/07 02:08:54;;;;;;;7.45;5.32;;;23.40;54.30;;;;;;5049649;28;20251;-54
2021/09/07 02:11:19;;;;;;;6.20;5.13;;;23.40;54.40;;;;;;5053318;28;20467;-56
2021/09/07 02:13:45;;;;;;;6.50;5.30;;;23.40;54.40;;;;;;5046487;28;20051;-55
2021/09/07 02:16:11;;;;;;;6.60;5.32;;;23.40;54.40;;;;;;5038928;28;20462;-55
2021/09/07 02:18:36;;;;;;;6.22;5.25;;;23.40;54.40;;;;;;5049951;28;20489;-55
2021/09/07 02:21:02;;;;;;;8.13;6.20;;;23.40;54.40;;;;;;5054664;28;20044;-55
2021/09/07 02:23:27;;;;;;;8.00;5.13;;;23.40;54.40;;;;;;5054187;28;20033;-55
2021/09/07 02:25:53;;;;;;;8.00;5.30;;;23.40;54.50;;;;;;5053143;28;20033;-56
2021/09/07 02:28:19;;;;;;;9.10;5.60;;;23.40;54.30;;;;;;5054572;28;20379;-56
2021/09/07 02:30:44;;;;;;;7.95;5.47;;;23.40;54.50;;;;;;5053316;28;20375;-55
2021/09/07 02:33:10;;;;;;;6.30;5.32;;;23.40;54.40;;;;;;5054520;28;20044;-57
2021/09/07 02:35:36;;;;;;;7.10;5.47;;;23.40;54.40;;;;;;5056082;28;20033;-55
2021/09/07 02:38:03;;;;;;;7.05;6.00;;;23.40;54.40;;;;;;5054262;28;20037;-56
2021/09/07 02:40:29;;;;;;;5.88;4.95;;;23.40;54.50;;;;;;5054206;28;20036;-55
2021/09/07 02:42:54;;;;;;;6.47;5.25;;;23.30;54.40;;;;;;5054990;28;20029;-56
2021/09/07 02:45:20;;;;;;;6.32;5.10;;;23.40;54.40;;;;;;5054130;28;20086;-56
2021/09/07 02:47:45;;;;;;;8.48;4.90;;;23.40;54.50;;;;;;5053158;28;20124;-56
2021/09/07 02:50:15;;;;;;;6.28;4.95;;;23.40;54.40;;;;;;5053615;28;20037;-56
2021/09/07 02:52:41;;;;;;;7.07;5.18;;;23.40;54.40;;;;;;5052832;28;20040;-56
2021/09/07 02:55:07;;;;;;;6.70;5.38;;;23.30;54.30;;;;;;5053306;28;20099;-56
2021/09/07 02:57:33;;;;;;;9.43;5.20;;;23.30;54.30;;;;;;5053746;28;20029;-56
2021/09/07 02:59:59;;;;;;;6.50;5.53;;;23.30;54.40;;;;;;5052798;28;20102;-56
2021/09/07 03:02:25;;;;;;;7.63;5.00;;;23.30;54.40;;;;;;5055834;28;20119;-56
2021/09/07 03:04:51;;;;;;;6.93;5.43;;;23.30;54.40;;;;;;5053134;28;20086;-56
2021/09/07 03:07:17;;;;;;;7.60;6.05;;;23.30;54.40;;;;;;5053743;28;20454;-55
2021/09/07 03:09:43;;;;;;;7.57;5.20;;;23.30;54.20;;;;;;5053011;28;20124;-56
2021/09/07 03:12:09;;;;;;;7.30;5.57;;;23.30;54.40;;;;;;5053045;28;20105;-55
2021/09/07 03:14:34;;;;;;;5.85;4.88;;;23.30;54.40;;;;;;5058446;28;20417;-56
2021/09/07 03:17:00;;;;;;;7.72;5.00;;;23.30;54.40;;;;;;5053283;28;20032;-56
2021/09/07 03:19:26;;;;;;;6.80;5.90;;;23.30;54.30;;;;;;5053499;28;20035;-56
2021/09/07 03:21:51;;;;;;;6.47;5.25;;;23.30;54.40;;;;;;5052564;28;20029;-56
2021/09/07 03:24:18;;;;;;;7.50;5.18;;;23.30;54.30;;;;;;5054809;28;20079;-55
2021/09/07 03:26:43;;;;;;;7.72;6.28;;;23.30;54.30;;;;;;5052595;28;20044;-56
2021/09/07 03:29:10;;;;;;;7.60;5.32;;;23.30;54.50;;;;;;5053391;28;20021;-57
2021/09/07 03:31:36;;;;;;;6.00;5.05;;;23.30;54.40;;;;;;5052997;28;20087;-55
2021/09/07 03:34:02;;;;;;;7.90;5.90;;;23.30;54.30;;;;;;5052749;28;20071;-57
2021/09/07 03:36:28;;;;;;;8.27;5.93;;;23.30;54.40;;;;;;5052847;28;20425;-55
2021/09/07 03:38:53;;;;;;;7.25;5.85;;;23.30;54.40;;;;;;5052343;28;20025;-55
2021/09/07 03:41:19;;;;;;;7.13;5.28;;;23.30;54.50;;;;;;5053088;28;20108;-55
2021/09/07 03:43:45;;;;;;;7.85;5.93;;;23.30;54.40;;;;;;5059186;28;20036;-55
2021/09/07 03:46:10;;;;;;;8.18;5.15;;;23.30;54.30;;;;;;5053335;28;20036;-55
2021/09/07 03:48:36;;;;;;;7.95;5.47;;;23.30;54.40;;;;;;5052529;28;20104;-55
2021/09/07 03:51:02;;;;;;;7.88;5.55;;;23.30;54.30;;;;;;5052501;28;20025;-55
2021/09/07 03:53:29;;;;;;;6.93;5.68;;;23.30;54.40;;;;;;5050887;28;20493;-54
2021/09/07 03:55:56;;;;;;;6.93;5.28;;;23.30;55.10;;;;;;5052094;28;20037;-55
2021/09/07 03:58:21;;;;;;;6.53;5.22;;;23.30;54.50;;;;;;5053263;28;20025;-54
2021/09/07 04:00:47;;;;;;;8.60;5.82;;;23.30;54.50;;;;;;5052021;28;20405;-54
2021/09/07 04:03:14;;;;;;;7.65;5.60;;;23.30;54.40;;;;;;5052518;28;20397;-55
2021/09/07 04:05:40;;;;;;;6.25;5.60;;;23.30;55.10;;;;;;5051647;28;20044;-54
2021/09/07 04:08:05;;;;;;;6.57;5.13;;;23.30;54.50;;;;;;5052491;28;20382;-56
2021/09/07 04:10:31;;;;;;;7.05;5.65;;;23.20;54.40;;;;;;5052268;28;20032;-56
2021/09/07 04:12:57;;;;;;;7.20;6.05;;;23.30;54.30;;;;;;5051620;28;20090;-56
2021/09/07 04:15:22;;;;;;;12.30;5.47;;;23.30;54.30;;;;;;5052799;28;20467;-55
2021/09/07 04:17:48;;;;;;;6.57;5.40;;;23.30;54.30;;;;;;5051471;28;20029;-54
2021/09/07 04:20:14;;;;;;;6.28;5.18;;;23.30;54.30;;;;;;5052607;28;20094;-55
2021/09/07 04:22:39;;;;;;;7.35;5.68;;;23.20;54.40;;;;;;5056615;28;20458;-54
2021/09/07 04:25:05;;;;;;;6.25;5.32;;;23.30;54.30;;;;;;5052062;28;20082;-55
2021/09/07 04:27:31;;;;;;;8.65;5.68;;;23.30;54.40;;;;;;5051805;28;20106;-53
2021/09/07 04:29:57;;;;;;;6.88;5.57;;;23.20;54.30;;;;;;5050985;28;20462;-54
2021/09/07 04:32:22;;;;;;;8.52;6.43;;;23.20;54.30;;;;;;5051721;28;20091;-54
2021/09/07 04:34:48;;;;;;;7.97;5.65;;;23.20;54.30;;;;;;5051159;28;20029;-55
2021/09/07 04:37:14;;;;;;;8.40;5.65;;;23.20;54.40;;;;;;5052120;28;20402;-56
2021/09/07 04:39:39;;;;;;;7.25;5.22;;;23.20;54.40;;;;;;5051348;28;20029;-54
2021/09/07 04:42:05;;;;;;;6.82;5.55;;;23.20;55.00;;;;;;5051379;28;20028;-56
2021/09/07 04:44:31;;;;;;;7.20;6.13;;;23.20;54.40;;;;;;5052179;28;20021;-56
2021/09/07 04:46:57;;;;;;;7.00;5.70;;;23.20;55.00;;;;;;5051192;28;20033;-57
2021/09/07 04:49:23;;;;;;;8.20;5.72;;;23.20;54.40;;;;;;5051990;28;20090;-56
2021/09/07 04:51:49;;;;;;;8.60;5.75;;;23.20;54.40;;;;;;5051092;28;20468;-57
2021/09/07 04:54:14;;;;;;;8.32;5.65;;;23.20;54.40;;;;;;5052124;28;20167;-56
2021/09/07 04:56:40;;;;;;;8.75;5.88;;;23.20;54.40;;;;;;5051640;28;20408;-56
2021/09/07 04:59:05;;;;;;;9.88;7.03;;;23.20;54.40;;;;;;5051308;28;20033;-57
2021/09/07 05:01:31;;;;;;;7.65;5.88;;;23.20;54.40;;;;;;5051693;28;20449;-56
2021/09/07 05:03:57;;;;;;;6.00;5.18;;;23.20;54.50;;;;;;5050482;28;20515;-55
2021/09/07 05:06:22;;;;;;;7.28;6.00;;;23.20;54.40;;;;;;5051569;28;20033;-54
2021/09/07 05:08:48;;;;;;;7.47;5.55;;;23.20;54.40;;;;;;5050483;28;20021;-55
2021/09/07 05:11:13;;;;;;;7.32;5.55;;;23.20;54.50;;;;;;5050872;28;20478;-56
2021/09/07 05:13:39;;;;;;;7.32;6.03;;;23.20;54.40;;;;;;5050376;28;20036;-56
2021/09/07 05:16:05;;;;;;;8.23;6.25;;;23.30;54.50;;;;;;5050865;28;20021;-57
2021/09/07 05:18:31;;;;;;;8.60;6.07;;;23.20;54.50;;;;;;5051137;28;20039;-56
2021/09/07 05:20:56;;;;;;;8.55;6.75;;;23.20;54.40;;;;;;5050916;28;20029;-56
2021/09/07 05:23:22;;;;;;;8.73;6.85;;;23.20;54.50;;;;;;5050901;28;20474;-55
2021/09/07 05:25:47;;;;;;;8.13;5.75;;;23.20;54.70;;;;;;5050118;28;20033;-56
2021/09/07 05:28:13;;;;;;;8.23;6.20;;;23.20;54.50;;;;;;5053378;28;20116;-55
2021/09/07 05:30:39;;;;;;;6.97;5.40;;;23.20;54.60;;;;;;5066606;28;20443;-55
2021/09/07 05:33:06;;;;;;;7.15;5.93;;;23.20;54.60;;;;;;5053923;28;20033;-54
2021/09/07 05:35:32;;;;;;;6.72;5.55;;;23.20;54.60;;;;;;5043215;28;20029;-55
2021/09/07 05:37:58;;;;;;;7.88;5.47;;;23.20;54.60;;;;;;5050321;28;20351;-56
2021/09/07 05:40:23;;;;;;;7.20;5.82;;;23.20;54.60;;;;;;5050628;28;20029;-56
2021/09/07 05:42:49;;;;;;;8.07;5.80;;;23.20;54.60;;;;;;5050179;28;20037;-55
2021/09/07 05:45:17;;;;;;;8.40;5.80;;;23.20;54.60;;;;;;5052616;28;20032;-55
2021/09/07 05:47:44;;;;;;;9.73;5.57;;;23.20;54.60;;;;;;5054960;28;20409;-53
2021/09/07 05:50:11;;;;;;;7.07;5.65;;;23.20;54.70;;;;;;5055106;28;20029;-55
2021/09/07 05:52:36;;;;;;;8.30;5.60;;;23.20;54.70;;;;;;5048133;28;20025;-56
2021/09/07 05:55:03;;;;;;;9.18;6.28;;;23.20;54.70;;;;;;5054268;28;20048;-57
2021/09/07 05:57:29;;;;;;;6.45;5.55;;;23.20;54.80;;;;;;5055008;28;20037;-55
2021/09/07 05:59:55;;;;;;;7.25;5.70;;;23.20;54.70;;;;;;5053396;28;20044;-55
2021/09/07 06:02:23;;;;;;;7.20;5.90;;;23.20;54.80;;;;;;5047923;28;20106;-54
2021/09/07 06:04:49;;;;;;;7.72;5.78;;;23.30;54.80;;;;;;5055433;28;20028;-55
2021/09/07 06:07:15;;;;;;;6.47;5.72;;;23.30;54.80;;;;;;5055281;28;20033;-57
2021/09/07 06:09:41;;;;;;;6.18;4.97;;;23.30;54.90;;;;;;5054511;28;20025;-55
2021/09/07 06:12:07;;;;;;;6.28;4.90;;;23.30;54.80;;;;;;5053945;28;20024;-56
2021/09/07 06:14:33;;;;;;;7.03;5.15;;;23.40;55.00;;;;;;5054287;28;20470;-52
2021/09/07 06:17:02;;;;;;;9.45;4.90;;;23.40;55.40;;;;;;5053848;28;20425;-53
2021/09/07 06:19:28;;;;;;;8.40;5.03;;;23.50;55.90;;;;;;5055336;28;20029;-54
2021/09/07 06:21:53;;;;;;;7.05;5.47;;;23.50;56.00;;;;;;5053706;28;20075;-54
2021/09/07 06:24:19;;;;;;;6.07;4.85;;;23.50;56.10;;;;;;5054552;28;20108;-55
2021/09/07 06:26:45;;;;;;;9.52;5.15;;;23.50;56.20;;;;;;5053717;28;20037;-55
2021/09/07 06:29:11;;;;;;;9.98;5.03;;;23.50;56.70;;;;;;5054099;28;20401;-53
2021/09/07 06:31:37;;;;;;;8.63;4.47;;;23.40;57.10;;;;;;5055465;28;20033;-54
2021/09/07 06:34:03;;;;;;;6.68;4.45;;;23.40;56.80;;;;;;5053540;28;20037;-54
2021/09/07 06:36:29;;;;;;;7.78;5.18;;;23.50;56.90;;;;;;5044433;28;20029;-54
2021/09/07 06:38:54;;;;;;;10.85;5.45;;;23.50;56.80;;;;;;5053475;28;20032;-54
2021/09/07 06:41:20;;;;;;;6.90;5.55;;;23.50;56.80;;;;;;5053297;28;20021;-51
2021/09/07 06:43:46;;;;;;;9.45;4.72;;;23.50;56.80;;;;;;5053360;28;20029;-53
2021/09/07 06:46:12;;;;;;;6.80;4.75;;;23.50;57.10;;;;;;5053986;28;20029;-50
2021/09/07 06:48:38;;;;;;;9.02;5.05;;;23.50;57.10;;;;;;5054050;28;20025;-54
2021/09/07 06:51:03;;;;;;;9.63;5.15;;;23.50;57.30;;;;;;5053000;28;20025;-54
2021/09/07 06:53:30;;;;;;;7.85;5.10;;;23.50;57.40;;;;;;5052657;28;20493;-53
2021/09/07 06:55:56;;;;;;;6.47;4.93;;;23.50;57.20;;;;;;5052364;28;20028;-54
2021/09/07 06:58:22;;;;;;;8.10;5.28;;;23.50;57.20;;;;;;5054144;28;20037;-53
2021/09/07 07:00:48;;;;;;;8.20;5.53;;;23.50;57.30;;;;;;5052683;28;20053;-55
2021/09/07 07:03:13;;;;;;;11.73;5.38;;;23.50;57.30;;;;;;5052697;28;20028;-51
2021/09/07 07:05:39;;;;;;;7.63;5.25;;;23.50;57.20;;;;;;5044136;28;20087;-54
2021/09/07 07:08:05;;;;;;;7.38;5.00;;;23.50;57.20;;;;;;5054289;28;20166;-52
2021/09/07 07:10:31;;;;;;;6.85;4.82;;;23.50;57.30;;;;;;5053971;28;20039;-52
2021/09/07 07:12:57;;;;;;;10.90;5.05;;;23.60;57.30;;;;;;5052153;28;20029;-53
2021/09/07 07:15:22;;;;;;;9.00;5.38;;;23.60;57.30;;;;;;5053181;28;20060;-53
2021/09/07 07:17:48;;;;;;;6.75;4.72;;;23.60;57.30;;;;;;5052718;28;20029;-54
2021/09/07 07:20:14;;;;;;;5.53;4.88;;;23.60;57.30;;;;;;5053174;28;20470;-54
2021/09/07 07:22:40;;;;;;;9.82;4.50;;;23.60;57.40;;;;;;5053747;28;20033;-52
2021/09/07 07:25:07;;;;;;;7.55;4.40;;;23.60;57.60;;;;;;5052632;28;20541;-52
2021/09/07 07:27:32;;;;;;;8.55;4.88;;;23.60;57.70;;;;;;5053203;28;20033;-53
2021/09/07 07:29:58;;;;;;;6.18;4.38;;;23.60;57.70;;;;;;5052439;28;20025;-53
2021/09/07 07:32:24;;;;;;;8.57;5.32;;;23.60;57.70;;;;;;5053131;28;20044;-53
2021/09/07 07:34:49;;;;;;;6.03;4.55;;;23.60;57.30;;;;;;5051281;28;20104;-53
2021/09/07 07:37:15;;;;;;;7.68;4.65;;;23.60;57.30;;;;;;5052723;28;20029;-55
2021/09/07 07:39:41;;;;;;;6.20;4.70;;;23.60;57.40;;;;;;5044449;28;20040;-51
2021/09/07 07:42:07;;;;;;;5.82;4.80;;;23.60;57.40;;;;;;5052278;28;20021;-53
2021/09/07 07:44:32;;;;;;;7.80;4.97;;;23.60;57.40;;;;;;5052904;28;20029;-54
2021/09/07 07:46:58;;;;;;;6.57;4.55;;;23.60;57.20;;;;;;5051926;28;20103;-55
2021/09/07 07:49:24;;;;;;;6.03;5.00;;;23.60;57.10;;;;;;5053112;28;20114;-55
2021/09/07 07:51:49;;;;;;;7.03;5.05;;;23.60;57.20;;;;;;5052405;28;20040;-51
2021/09/07 07:54:15;;;;;;;6.82;5.55;;;23.60;57.30;;;;;;5052796;28;20036;-56
2021/09/07 07:56:41;;;;;;;7.85;5.15;;;23.60;56.90;;;;;;5052341;28;20154;-54
2021/09/07 07:59:07;;;;;;;10.35;5.05;;;23.60;57.00;;;;;;5051891;28;20027;-55
2021/09/07 08:01:33;;;;;;;8.90;5.55;;;23.60;56.90;;;;;;5052228;28;20498;-55
2021/09/07 08:03:58;;;;;;;9.25;5.75;;;23.60;56.80;;;;;;5041979;28;20025;-53
2021/09/07 08:06:24;;;;;;;7.70;4.97;;;23.60;56.60;;;;;;5056334;28;20036;-52
2021/09/07 08:08:50;;;;;;;12.07;6.38;;;23.60;56.70;;;;;;5051766;28;20395;-51
2021/09/07 08:11:19;;;;;;;10.13;5.40;;;23.60;56.80;;;;;;5050929;28;20052;-54
2021/09/07 08:13:45;;;;;;;7.30;5.10;;;23.60;56.50;;;;;;5051148;28;20036;-55
2021/09/07 08:16:11;;;;;;;11.07;6.50;;;23.60;56.10;;;;;;5051605;28;20045;-52
2021/09/07 08:18:37;;;;;;;11.18;6.53;;;23.60;55.90;;;;;;5051392;28;20029;-52
2021/09/07 08:21:03;;;;;;;10.07;6.72;;;23.60;56.00;;;;;;5051714;28;20028;-54
2021/09/07 08:23:28;;;;;;;10.18;6.28;;;23.50;55.70;;;;;;5052192;28;20061;-50
2021/09/07 08:25:54;;;;;;;8.23;6.13;;;23.60;55.70;;;;;;5051977;28;20497;-54
2021/09/07 08:28:20;;;;;;;11.95;7.07;;;23.50;55.70;;;;;;5051211;28;20099;-55
2021/09/07 08:30:46;;;;;;;10.40;6.07;;;23.50;55.70;;;;;;5051490;28;20463;-55
2021/09/07 08:33:14;;;;;;;11.23;6.68;;;23.50;55.70;;;;;;5051773;28;20033;-55
2021/09/07 08:35:41;;;;;;;8.52;6.03;;;23.50;55.60;;;;;;5057989;28;20115;-54
2021/09/07 08:38:06;;;;;;;11.32;7.25;;;23.50;55.60;;;;;;5051213;28;20029;-53
2021/09/07 08:40:32;;;;;;;9.82;6.45;;;23.50;55.50;;;;;;5052123;28;20027;-55
2021/09/07 08:43:01;;;;;;;9.70;6.32;;;23.50;55.40;;;;;;5051190;28;20454;-54
2021/09/07 08:45:28;;;;;;;9.50;6.57;;;23.50;55.60;;;;;;5051868;28;20029;-54
2021/09/07 08:47:57;;;;;;;9.70;5.93;;;23.50;55.70;;;;;;5049963;28;20036;-55
2021/09/07 08:50:23;;;;;;;13.73;6.70;;;23.50;55.80;;;;;;5052215;28;20154;-53
2021/09/07 08:52:48;;;;;;;8.70;6.15;;;23.50;55.90;;;;;;5043003;28;20036;-54
2021/09/07 08:55:14;;;;;;;10.85;6.00;;;23.50;55.80;;;;;;5051623;28;20029;-53
2021/09/07 08:57:40;;;;;;;9.70;6.25;;;23.50;55.80;;;;;;5050272;28;20065;-53
2021/09/07 09:00:06;;;;;;;6.78;4.90;;;23.50;55.80;;;;;;5051103;28;20037;-54
2021/09/07 09:02:40;;;;;;;8.35;6.15;;;23.50;56.50;;;;;;5051416;28;20090;-53
2021/09/07 09:05:06;;;;;;;9.23;6.20;;;23.50;55.90;;;;;;5052492;28;20067;-55
2021/09/07 09:07:32;;;;;;;9.07;6.00;;;23.50;55.90;;;;;;5051315;28;20033;-53
2021/09/07 09:09:59;;;;;;;10.55;6.40;;;23.50;55.90;;;;;;5050386;28;20029;-52
2021/09/07 09:12:30;;;;;;;8.93;6.25;;;23.50;55.90;;;;;;5050879;28;20162;-54
2021/09/07 09:14:57;;;;;;;7.47;5.72;;;23.50;55.90;;;;;;5050808;28;20039;-50
2021/09/07 09:17:25;;;;;;;9.38;6.20;;;23.50;55.90;;;;;;5051520;28;20025;-55
2021/09/07 09:19:55;;;;;;;8.60;6.50;;;23.50;55.90;;;;;;5048997;28;20523;-51
2021/09/07 09:22:38;;;;;;;10.23;6.13;;;23.50;55.90;;;;;;5050713;28;20021;-51
2021/09/07 09:25:04;;;;;;;9.52;5.80;;;23.50;55.90;;;;;;5041202;28;21544;-54
2021/09/07 09:27:30;;;;;;;10.18;6.35;;;23.50;55.90;;;;;;5051413;28;20540;-51
2021/09/07 09:29:56;;;;;;;10.52;5.35;;;23.50;55.90;;;;;;5051328;28;20029;-53
2021/09/07 09:32:25;;;;;;;10.05;5.90;;;23.50;55.90;;;;;;5050870;28;20363;-52
2021/09/07 09:34:51;;;;;;;9.88;6.30;;;23.50;55.90;;;;;;5051975;28;20112;-55
2021/09/07 09:37:16;;;;;;;8.98;6.28;;;23.50;55.90;;;;;;5049424;28;20120;-52
2021/09/07 09:39:46;;;;;;;11.75;5.80;;;23.50;55.90;;;;;;5050958;28;20592;-54
2021/09/07 09:42:16;;;;;;;9.60;5.93;;;23.50;56.00;;;;;;5050295;28;20021;-54
2021/09/07 09:44:42;;;;;;;7.25;5.97;;;23.50;56.10;;;;;;5056104;28;20025;-53
2021/09/07 09:47:07;;;;;;;8.70;5.90;;;23.60;56.10;;;;;;5053966;28;20083;-54
2021/09/07 09:49:34;;;;;;;8.55;6.18;;;23.60;56.00;;;;;;5051538;28;20033;-49
2021/09/07 09:52:03;;;;;;;10.80;5.95;;;23.60;56.00;;;;;;5049793;28;20022;-50
2021/09/07 09:54:30;;;;;;;7.32;5.70;;;23.60;56.20;;;;;;5049128;28;20471;-48
2021/09/07 09:56:58;;;;;;;11.23;6.20;;;23.60;56.30;;;;;;5050620;28;20029;-52
2021/09/07 09:59:26;;;;;;;9.05;6.45;;;23.60;56.30;;;;;;5050784;28;20060;-53
2021/09/07 10:01:53;;;;;;;9.80;6.30;;;23.60;56.30;;;;;;5050030;28;20045;-53
2021/09/07 10:04:20;;;;;;;11.23;6.70;;;23.60;56.40;;;;;;5050553;28;20100;-50
2021/09/07 10:06:50;;;;;;;10.80;6.07;;;23.60;56.50;;;;;;5050953;28;20033;-51
2021/09/07 10:09:21;;;;;;;8.30;5.93;;;23.60;56.50;;;;;;5050369;28;20057;-53
2021/09/07 10:11:51;;;;;;;8.40;6.37;;;23.60;56.40;;;;;;5051067;28;20108;-50
2021/09/07 10:14:20;;;;;;;10.05;6.18;;;23.60;56.40;;;;;;5050621;28;20124;-52
2021/09/07 10:16:56;;;;;;;7.70;6.13;;;23.60;56.30;;;;;;5054320;28;20379;-52
2021/09/07 10:19:46;;;;;;;8.63;6.18;;;23.60;56.30;;;;;;5050518;28;20032;-51
2021/09/07 10:25:51;;;;;;;8.95;5.45;;;23.60;56.10;;;;;;5051001;28;20036;-51
2021/09/07 10:28:43;;;;;;;9.27;5.38;;;23.60;56.00;;;;;;5049437;28;20108;-49
2021/09/07 10:31:10;;;;;;;8.68;5.90;;;23.60;56.10;;;;;;5051536;28;20033;-50
2021/09/07 10:33:36;;;;;;;10.30;5.28;;;23.70;56.20;;;;;;5053247;28;20060;-51
2021/09/07 10:36:09;;;;;;;8.32;5.57;;;23.70;56.40;;;;;;5052786;28;20090;-50
2021/09/07 10:38:37;;;;;;;7.97;5.50;;;23.70;55.20;;;;;;5054403;28;20040;-50
2021/09/07 10:41:02;;;;;;;9.77;5.47;;;23.70;54.30;;;;;;5054232;28;20120;-50
2021/09/07 10:43:47;;;;;;;9.23;6.40;;;23.60;53.80;;;;;;5054716;28;20104;-50
2021/09/07 10:46:12;;;;;;;8.85;5.20;;;23.60;53.10;;;;;;5054036;28;20175;-50
2021/09/07 10:48:38;;;;;;;8.65;5.75;;;23.60;52.90;;;;;;5053528;28;20750;-51
2021/09/07 10:51:04;;;;;;;8.18;5.32;;;23.70;52.60;;;;;;5052743;28;20035;-53
2021/09/07 10:53:30;;;;;;;8.38;5.82;;;23.60;53.30;;;;;;5053997;28;20032;-51
2021/09/07 10:56:27;;;;;;;9.73;5.57;;;23.60;54.50;;;;;;5051993;28;20067;-50
2021/09/07 10:58:53;;;;;;;8.35;5.65;;;23.60;54.10;;;;;;5053242;28;20091;-50
2021/09/07 11:01:26;;;;;;;8.88;5.32;;;23.70;54.30;;;;;;5053056;28;20433;-48
2021/09/07 11:04:31;;;;;;;7.15;5.57;;;23.60;54.60;;;;;;5053533;28;20056;-54
2021/09/07 11:06:58;;;;;;;9.45;5.32;;;23.70;55.00;;;;;;5029590;28;20033;-49
2021/09/07 11:09:52;;;;;;;8.57;5.70;;;23.60;55.20;;;;;;5041981;28;20045;-52
2021/09/07 11:12:29;;;;;;;9.02;5.70;;;23.70;55.30;;;;;;5049118;28;20029;-52
2021/09/07 11:15:07;;;;;;;7.80;5.15;;;23.70;55.30;;;;;;5044657;28;20033;-54
2021/09/07 11:17:34;;;;;;;9.40;5.20;;;23.70;55.60;;;;;;5051954;28;20270;-49
2021/09/07 11:20:08;;;;;;;8.93;5.28;;;23.70;55.60;;;;;;5052579;28;20021;-48
2021/09/07 11:22:35;;;;;;;8.82;5.40;;;23.70;55.60;;;;;;5053287;28;20037;-49
2021/09/07 11:25:02;;;;;;;8.77;5.88;;;23.70;55.60;;;;;;5052615;28;20042;-50
2021/09/07 11:27:48;;;;;;;7.88;5.28;;;23.70;55.60;;;;;;5051815;28;20382;-50
2021/09/07 11:30:36;;;;;;;9.00;5.13;;;23.70;55.60;;;;;;5050744;28;20028;-49
2021/09/07 11:33:08;;;;;;;8.43;5.22;;;23.70;55.50;;;;;;5052523;28;20044;-49
2021/09/07 11:35:48;;;;;;;7.40;5.38;;;23.70;55.50;;;;;;5048115;28;20041;-53
2021/09/07 11:38:16;;;;;;;13.45;6.40;;;23.70;55.40;;;;;;5050189;28;20472;-53
2021/09/07 11:40:45;;;;;;;8.52;5.78;;;23.80;56.00;;;;;;5054328;28;20371;-52
2021/09/07 11:43:12;;;;;;;8.57;5.18;;;23.80;55.80;;;;;;5050493;28;20029;-49
2021/09/07 11:45:38;;;;;;;8.43;5.93;;;23.80;55.60;;;;;;5055255;28;20119;-50
2021/09/07 11:48:06;;;;;;;9.70;5.88;;;23.80;55.80;;;;;;5052359;28;20530;-52
2021/09/07 11:50:35;;;;;;;10.95;5.50;;;23.90;56.20;;;;;;5052980;28;20025;-51
2021/09/07 11:53:04;;;;;;;7.93;5.53;;;23.90;56.30;;;;;;5051598;28;20470;-48
2021/09/07 11:55:40;;;;;;;8.63;5.53;;;23.90;56.30;;;;;;5052099;28;20417;-49
2021/09/07 11:58:07;;;;;;;7.03;4.60;;;23.90;56.40;;;;;;5051681;28;20021;-51
2021/09/07 12:00:34;;;;;;;6.70;5.38;;;23.90;56.40;;;;;;5052706;28;20057;-53
2021/09/07 12:03:13;;;;;;;7.50;5.45;;;23.90;56.50;;;;;;5052031;28;20024;-49
2021/09/07 12:05:57;;;;;;;7.65;5.38;;;23.90;56.60;;;;;;5034751;28;20026;-51
2021/09/07 12:08:40;;;;;;;5.80;4.43;;;23.90;56.40;;;;;;5052722;28;20075;-49
2021/09/07 12:11:11;;;;;;;7.95;5.22;;;23.90;56.70;;;;;;5051560;28;20096;-50
2021/09/07 12:13:37;;;;;;;7.15;5.10;;;24.00;56.80;;;;;;5053002;28;20025;-50
2021/09/07 12:16:04;;;;;;;7.25;4.68;;;23.90;56.70;;;;;;5052549;28;20033;-55
2021/09/07 12:18:33;;;;;;;8.98;5.15;;;24.00;56.80;;;;;;5052151;28;20036;-52
2021/09/07 12:21:11;;;;;;;8.20;5.40;;;24.00;56.90;;;;;;5051584;28;20374;-55
2021/09/07 12:23:40;;;;;;;7.15;5.40;;;24.00;56.90;;;;;;5052179;28;20049;-49
2021/09/07 12:26:06;;;;;;;7.20;5.30;;;24.00;56.90;;;;;;5051164;28;20028;-52
2021/09/07 12:28:33;;;;;;;8.02;4.82;;;24.00;56.90;;;;;;5052045;28;20108;-51
2021/09/07 12:31:21;;;;;;;7.68;5.35;;;24.00;56.90;;;;;;5051213;28;20036;-54
2021/09/07 12:33:52;;;;;;;7.28;5.25;;;24.00;57.00;;;;;;5052110;28;20528;-52
2021/09/07 12:36:20;;;;;;;7.83;5.70;;;24.00;57.00;;;;;;5044622;28;20577;-49
2021/09/07 12:38:45;;;;;;;5.75;4.60;;;24.00;57.00;;;;;;5051952;28;20048;-50
2021/09/07 12:41:18;;;;;;;9.65;5.75;;;24.10;57.00;;;;;;5051364;28;20382;-50
2021/09/07 12:43:47;;;;;;;8.75;5.50;;;24.10;57.00;;;;;;5051866;28;20029;-49
2021/09/07 12:46:19;;;;;;;5.85;4.53;;;24.10;57.10;;;;;;5052721;28;20493;-51
2021/09/07 12:48:48;;;;;;;5.70;5.03;;;24.10;57.10;;;;;;5051795;28;20029;-49
2021/09/07 12:51:16;;;;;;;7.45;5.00;;;24.10;57.00;;;;;;5050947;28;20032;-51